METAR Data
IDs: Format: Raw Decoded Include TAF

Data at: 0805 UTC 21 Oct 2018

METAR for:KILN (Wilmington Arpt, OH, US)
Text:KILN 210754Z AUTO 31009KT 10SM CLR 01/M03 A3025 RMK AO2 SLP259 T00061033
Temperature: 0.6°C ( 33°F)
Dewpoint: -3.3°C ( 26°F) [RH = 75%]
Pressure (altimeter):30.25 inches Hg (1024.5 mb) [Sea level pressure: 1025.9 mb]
Winds:from the NW (310 degrees) at 10 MPH (9 knots; 4.6 m/s)
Visibility:10 or more sm (16+ km)
Ceiling:at least 12,000 feet AGL
Clouds:sky clear below 12,000 feet AGL
QC Flag:automated observation with no human augmentation